Time;durP1;ratioP1;P1;durP2;ratioP2;P2;SDS_P1;SDS_P2;PMS_P1;PMS_P2;Temp;Humidity;BMP_temperature;BMP_pressure;BME280_temperature;BME280_humidity;BME280_pressure;Samples;Min_cycle;Max_cycle;Signal;HPM_P1;HPM_P2
2024/02/01 06:02:05;;;;;;;6.35;3.58;;;9.40;78.70;;;;;;4126084;24;20068;-79
2024/02/01 06:04:06;;;;;;;7.22;4.13;;;9.40;78.20;;;;;;4055741;29;20077;-78
2024/02/01 06:06:10;;;;;;;7.50;3.65;;;9.40;78.30;;;;;;4055714;29;20053;-79
2024/02/01 06:08:12;;;;;;;9.15;3.67;;;9.40;78.20;;;;;;4055759;29;20509;-78
2024/02/01 06:10:14;;;;;;;8.35;3.90;;;9.40;78.10;;;;;;4055685;29;20052;-79
2024/02/01 06:12:16;;;;;;;9.48;3.25;;;9.40;78.00;;;;;;4055611;29;20048;-79
2024/02/01 06:14:18;;;;;;;7.45;3.50;;;9.40;77.80;;;;;;4055552;29;20049;-78
2024/02/01 06:16:20;;;;;;;8.25;3.65;;;9.40;77.60;;;;;;4055578;29;20049;-79
2024/02/01 06:18:23;;;;;;;6.43;3.42;;;9.40;77.50;;;;;;4055549;29;20123;-78
2024/02/01 06:20:25;;;;;;;6.55;3.58;;;9.40;77.40;;;;;;4055633;29;20048;-79
2024/02/01 06:22:28;;;;;;;6.25;3.90;;;9.40;77.50;;;;;;4055497;29;20463;-79
2024/02/01 06:24:29;;;;;;;8.73;4.28;;;9.40;77.60;;;;;;4056222;29;20057;-79
2024/02/01 06:26:31;;;;;;;7.63;3.65;;;9.40;77.80;;;;;;4056829;29;20048;-77
2024/02/01 06:28:33;;;;;;;8.20;4.18;;;9.40;77.90;;;;;;4056784;29;20072;-77
2024/02/01 06:30:37;;;;;;;9.13;4.10;;;9.40;78.00;;;;;;4057854;29;20089;-80
2024/02/01 06:32:40;;;;;;;8.00;4.60;;;9.40;78.00;;;;;;4056785;29;20133;-77
2024/02/01 06:34:44;;;;;;;8.80;3.97;;;9.40;78.50;;;;;;4058381;29;20081;-78
2024/02/01 06:36:53;;;;;;;7.32;4.20;;;9.40;78.80;;;;;;4059305;29;20048;-78
2024/02/01 06:39:10;;;;;;;8.73;3.95;;;9.40;78.80;;;;;;4059022;29;20410;-77
2024/02/01 06:41:27;;;;;;;7.43;3.83;;;9.40;78.60;;;;;;4057635;29;20048;-77
2024/02/01 06:43:31;;;;;;;8.85;4.38;;;9.30;79.40;;;;;;4058295;29;20051;-77
2024/02/01 06:45:42;;;;;;;7.93;4.20;;;9.20;80.20;;;;;;4057526;29;20076;-77
2024/02/01 06:47:49;;;;;;;9.80;3.97;;;9.20;81.00;;;;;;4055793;29;20056;-79
2024/02/01 06:50:03;;;;;;;9.82;4.78;;;9.20;82.00;;;;;;4055138;29;20049;-79
2024/02/01 06:52:24;;;;;;;10.73;4.90;;;9.10;83.00;;;;;;4053883;29;20406;-79
2024/02/01 06:54:38;;;;;;;9.27;4.82;;;9.00;84.20;;;;;;4055022;29;20056;-78
2024/02/01 06:56:48;;;;;;;9.73;4.82;;;9.00;84.70;;;;;;4054648;29;20498;-78
2024/02/01 06:59:06;;;;;;;9.65;5.10;;;8.90;85.20;;;;;;4054956;29;20439;-79
2024/02/01 07:01:38;;;;;;;11.23;5.13;;;8.90;85.70;;;;;;4054729;29;20151;-79
2024/02/01 07:03:51;;;;;;;10.63;5.28;;;8.90;85.90;;;;;;4054633;29;20052;-76
2024/02/01 07:06:06;;;;;;;11.13;5.45;;;8.90;86.40;;;;;;4054659;29;20051;-78
2024/02/01 07:08:13;;;;;;;12.55;5.35;;;8.90;87.20;;;;;;4054963;29;20139;-77
2024/02/01 07:10:16;;;;;;;8.82;4.97;;;8.80;87.60;;;;;;4054694;29;20104;-79
2024/02/01 07:12:39;;;;;;;9.95;5.32;;;8.80;87.80;;;;;;4054772;29;20049;-79
2024/02/01 07:14:41;;;;;;;10.10;4.93;;;8.90;87.40;;;;;;4054522;29;20056;-78
2024/02/01 07:16:55;;;;;;;9.20;5.13;;;8.80;87.80;;;;;;4054671;29;20056;-78
2024/02/01 07:19:09;;;;;;;9.20;4.75;;;8.80;88.60;;;;;;4054470;29;20052;-78
2024/02/01 07:21:30;;;;;;;10.90;5.63;;;8.80;88.80;;;;;;4054552;29;20048;-79
2024/02/01 07:23:34;;;;;;;11.50;5.00;;;8.80;88.70;;;;;;4054461;29;20091;-79
2024/02/01 07:25:47;;;;;;;10.85;5.32;;;8.70;88.50;;;;;;4054332;29;20052;-79
2024/02/01 07:58:21;;;;;;;13.10;5.55;;;8.60;90.50;;;;;;4053768;29;20518;-79
2024/02/01 08:00:33;;;;;;;11.90;6.00;;;8.60;90.60;;;;;;4053821;29;20057;-78
2024/02/01 08:02:48;;;;;;;10.45;6.05;;;8.60;90.90;;;;;;4053851;29;20147;-77
2024/02/01 08:09:30;;;;;;;11.02;6.05;;;8.60;91.30;;;;;;4053836;29;20098;-79
2024/02/01 08:11:32;;;;;;;9.40;5.75;;;8.60;91.40;;;;;;4055183;29;20048;-77
2024/02/01 08:13:33;;;;;;;9.50;5.68;;;8.50;91.30;;;;;;4055419;29;20455;-77
2024/02/01 08:15:37;;;;;;;11.30;6.60;;;8.50;91.60;;;;;;4053968;29;20060;-78
2024/02/01 08:17:43;;;;;;;11.85;6.35;;;8.40;91.60;;;;;;4053584;29;20384;-78
2024/02/01 08:19:45;;;;;;;11.63;5.75;;;8.50;91.90;;;;;;4053923;29;20049;-78
2024/02/01 08:21:47;;;;;;;10.43;6.43;;;8.50;91.80;;;;;;4053663;29;20490;-79
2024/02/01 08:23:54;;;;;;;11.82;6.28;;;8.50;91.70;;;;;;4053604;29;20052;-78
2024/02/01 08:26:02;;;;;;;12.95;6.50;;;8.50;91.90;;;;;;4053560;29;20052;-79
2024/02/01 08:28:08;;;;;;;12.43;6.35;;;8.50;91.80;;;;;;4053366;29;20502;-78
2024/02/01 08:30:13;;;;;;;10.80;6.20;;;8.50;91.90;;;;;;4053450;29;20116;-79
2024/02/01 08:32:19;;;;;;;12.18;6.43;;;8.50;92.00;;;;;;4053462;29;20081;-78
2024/02/01 08:34:21;;;;;;;;;;;8.50;91.90;;;;;;4053791;29;20064;-77
2024/02/01 08:36:22;;;;;;;14.80;6.80;;;8.50;92.10;;;;;;4053598;29;19923;-77
2024/02/01 08:38:24;;;;;;;14.20;6.80;;;8.40;92.20;;;;;;4053458;29;20044;-78
2024/02/01 08:40:26;;;;;;;12.13;6.68;;;8.50;92.60;;;;;;4053507;29;20077;-76
2024/02/01 08:42:29;;;;;;;13.00;6.85;;;8.50;92.40;;;;;;4053294;29;20108;-77
2024/02/01 08:44:31;;;;;;;12.77;6.60;;;8.40;92.40;;;;;;4053332;29;20546;-76
2024/02/01 08:46:32;;;;;;;10.80;6.85;;;8.40;92.40;;;;;;4053069;29;20052;-78
2024/02/01 08:48:39;;;;;;;16.08;7.95;;;8.40;92.50;;;;;;4053186;29;20451;-76
2024/02/01 08:50:45;;;;;;;14.75;7.30;;;8.40;92.80;;;;;;4053216;29;20052;-76
2024/02/01 08:52:46;;;;;;;12.35;7.25;;;8.40;92.70;;;;;;4053300;29;20479;-80
2024/02/01 08:54:48;;;;;;;12.00;7.03;;;8.40;93.00;;;;;;4053329;29;20061;-79
2024/02/01 08:56:50;;;;;;;19.42;10.95;;;8.40;92.90;;;;;;4052982;29;20053;-81
2024/02/01 08:58:53;;;;;;;12.60;7.55;;;8.40;92.90;;;;;;4053130;29;20048;-78
2024/02/01 09:00:55;;;;;;;15.20;7.30;;;8.50;92.90;;;;;;4053010;29;20592;-76
2024/02/01 09:03:05;;;;;;;13.45;8.02;;;8.40;92.80;;;;;;4053258;29;20087;-79
2024/02/01 09:05:19;;;;;;;14.20;7.65;;;8.50;93.00;;;;;;4053319;29;20057;-76
2024/02/01 09:07:21;;;;;;;11.07;7.15;;;8.50;93.10;;;;;;4052986;29;20056;-78
2024/02/01 09:09:29;;;;;;;11.52;6.50;;;8.40;93.20;;;;;;4053279;29;20462;-77
2024/02/01 09:11:31;;;;;;;12.05;6.68;;;8.50;93.20;;;;;;4053313;29;20499;-75
2024/02/01 09:13:32;;;;;;;13.82;7.50;;;8.50;93.20;;;;;;4053019;29;20060;-79
2024/02/01 09:15:36;;;;;;;12.65;7.15;;;8.50;93.10;;;;;;4054141;29;20487;-78
2024/02/01 09:17:38;;;;;;;14.82;6.95;;;8.50;93.10;;;;;;4056049;29;20557;-78
2024/02/01 09:19:41;;;;;;;14.35;7.47;;;8.50;93.10;;;;;;4056199;29;20463;-78
2024/02/01 09:21:43;;;;;;;13.25;7.78;;;8.50;93.20;;;;;;4056187;29;20052;-78
2024/02/01 09:23:45;;;;;;;13.38;7.25;;;8.50;93.20;;;;;;4040586;29;20117;-78
2024/02/01 09:25:45;;;;;;;12.82;7.30;;;8.60;93.10;;;;;;4040642;29;20097;-78
2024/02/01 09:27:48;;;;;;;12.23;7.30;;;8.70;93.00;;;;;;4046041;29;20486;-78
2024/02/01 09:29:50;;;;;;;14.55;7.35;;;8.60;93.10;;;;;;4056078;29;20108;-76
2024/02/01 09:31:56;;;;;;;12.57;7.45;;;8.50;93.10;;;;;;4055883;29;20101;-79
2024/02/01 09:33:57;;;;;;;14.05;7.30;;;8.50;93.30;;;;;;4056024;29;20439;-80
2024/02/01 09:35:59;;;;;;;14.35;7.60;;;8.50;93.30;;;;;;4055792;29;20052;-79
2024/02/01 09:38:00;;;;;;;12.93;7.90;;;8.50;93.30;;;;;;4044541;29;20191;-80
2024/02/01 09:40:03;;;;;;;10.95;7.47;;;8.50;93.60;;;;;;4053924;29;20416;-77
2024/02/01 09:42:11;;;;;;;13.65;7.13;;;8.50;93.50;;;;;;4053852;29;20052;-80
2024/02/01 09:44:13;;;;;;;11.77;7.82;;;8.50;93.60;;;;;;4053795;29;20056;-77
2024/02/01 09:46:16;;;;;;;12.25;7.15;;;8.50;93.70;;;;;;4053691;29;20048;-79
2024/02/01 09:48:20;;;;;;;12.45;7.57;;;8.50;93.70;;;;;;4053110;29;20056;-78
2024/02/01 09:50:23;;;;;;;13.77;7.30;;;8.50;93.80;;;;;;4053642;29;20458;-79
2024/02/01 09:52:24;;;;;;;13.15;7.50;;;8.40;93.90;;;;;;4053192;29;20053;-79
2024/02/01 09:54:26;;;;;;;13.90;7.82;;;8.40;94.10;;;;;;4051048;29;20471;-80
2024/02/01 09:56:29;;;;;;;12.32;7.65;;;8.50;94.10;;;;;;4053786;29;20056;-79
2024/02/01 09:58:32;;;;;;;13.35;7.82;;;8.40;94.40;;;;;;4053325;29;20056;-79
2024/02/01 10:00:34;;;;;;;16.70;8.02;;;8.50;94.40;;;;;;4053164;29;20542;-80
2024/02/01 10:02:35;;;;;;;13.50;8.15;;;8.40;94.50;;;;;;4053105;29;20052;-80
2024/02/01 10:04:39;;;;;;;12.60;7.95;;;8.40;94.60;;;;;;4053542;29;20074;-80
2024/02/01 10:06:41;;;;;;;13.52;8.43;;;8.40;94.50;;;;;;4053374;29;20095;-80
2024/02/01 10:08:43;;;;;;;15.25;8.60;;;8.40;94.70;;;;;;4053039;29;20060;-79
2024/02/01 10:10:48;;;;;;;14.10;8.40;;;8.40;94.70;;;;;;4053524;29;20053;-79
2024/02/01 10:12:58;;;;;;;15.65;8.32;;;8.40;94.60;;;;;;4052918;29;20135;-78
2024/02/01 10:15:07;;;;;;;14.75;8.07;;;8.40;94.60;;;;;;4053472;29;20462;-80
2024/02/01 10:17:11;;;;;;;14.35;8.48;;;8.30;94.90;;;;;;4052970;29;20049;-79
2024/02/01 10:19:14;;;;;;;16.02;8.77;;;8.30;95.20;;;;;;4053374;29;20068;-77
2024/02/01 10:21:23;;;;;;;15.00;9.00;;;8.30;95.20;;;;;;4053342;29;20053;-78
2024/02/01 10:23:29;;;;;;;14.80;8.57;;;8.40;95.50;;;;;;4054401;29;20056;-80
2024/02/01 10:25:39;;;;;;;14.30;8.98;;;8.40;95.60;;;;;;4057216;29;20057;-79
2024/02/01 10:27:41;;;;;;;14.07;8.40;;;8.40;95.60;;;;;;4055399;29;20558;-80
2024/02/01 10:29:44;;;;;;;15.52;8.93;;;8.50;95.50;;;;;;4053353;29;20059;-78
2024/02/01 10:31:51;;;;;;;13.85;8.55;;;8.50;95.30;;;;;;4053224;29;20104;-79
2024/02/01 10:33:55;;;;;;;12.68;8.52;;;8.60;95.30;;;;;;4053272;29;20063;-79
2024/02/01 10:36:08;;;;;;;13.52;8.38;;;8.70;95.20;;;;;;4053064;29;20056;-80
2024/02/01 10:38:14;;;;;;;16.55;8.68;;;8.70;95.20;;;;;;4052740;29;20060;-80
2024/02/01 10:40:18;;;;;;;;;;;8.70;95.10;;;;;;4053550;29;20135;-83
2024/02/01 10:42:22;;;;;;;14.40;8.27;;;8.80;95.00;;;;;;4053103;29;19927;-79
2024/02/01 10:44:32;;;;;;;13.95;8.35;;;8.80;94.90;;;;;;4052867;29;20060;-78
2024/02/01 10:46:42;;;;;;;15.00;8.02;;;8.80;94.80;;;;;;4053094;29;20059;-78
2024/02/01 10:48:53;;;;;;;13.50;8.18;;;8.80;94.70;;;;;;4052356;29;20459;-78
2024/02/01 10:50:56;;;;;;;13.38;8.43;;;8.80;95.00;;;;;;4052878;29;20056;-80
2024/02/01 10:52:58;;;;;;;13.40;8.38;;;8.80;95.10;;;;;;4052831;29;20048;-78
2024/02/01 10:55:09;;;;;;;16.55;8.10;;;8.80;95.10;;;;;;4050686;29;20064;-80
2024/02/01 10:57:11;;;;;;;12.75;7.63;;;8.80;95.00;;;;;;4052417;29;20052;-79
2024/02/01 10:59:17;;;;;;;13.55;8.00;;;8.80;95.00;;;;;;4052612;29;20048;-79
2024/02/01 11:01:19;;;;;;;;;;;8.80;95.00;;;;;;4052739;29;20053;-78
2024/02/01 11:03:27;;;;;;;13.50;7.53;;;8.80;95.10;;;;;;4052480;29;19927;-79
2024/02/01 11:05:29;;;;;;;12.30;7.60;;;8.80;95.10;;;;;;4052755;29;20451;-79
2024/02/01 11:07:31;;;;;;;14.73;8.77;;;8.80;95.20;;;;;;4052421;29;20072;-78
2024/02/01 11:09:33;;;;;;;13.02;7.65;;;8.90;95.10;;;;;;4036962;29;20097;-76
2024/02/01 11:11:35;;;;;;;14.13;7.65;;;8.90;94.80;;;;;;4037052;29;20135;-80
2024/02/01 11:13:39;;;;;;;11.48;6.82;;;8.90;94.70;;;;;;4036463;29;20053;-78
2024/02/01 11:15:42;;;;;;;13.70;7.15;;;8.90;94.60;;;;;;4048162;29;20052;-79
2024/02/01 11:17:44;;;;;;;11.18;7.15;;;9.00;94.70;;;;;;4052533;29;20501;-78
2024/02/01 11:19:49;;;;;;;10.85;6.72;;;9.00;94.50;;;;;;4052443;29;20792;-76
2024/02/01 11:21:54;;;;;;;10.65;6.38;;;9.00;94.60;;;;;;4052483;29;20113;-78
2024/02/01 11:24:06;;;;;;;10.97;7.17;;;9.00;94.60;;;;;;4052337;29;20056;-79
2024/02/01 11:26:15;;;;;;;9.25;6.35;;;9.00;94.40;;;;;;4052296;29;20107;-79
2024/02/01 11:28:28;;;;;;;11.63;6.53;;;9.10;94.60;;;;;;4058602;29;20052;-78
2024/02/01 11:30:33;;;;;;;9.10;5.88;;;9.10;94.10;;;;;;4057918;29;20167;-78
2024/02/01 11:32:36;;;;;;;10.55;5.57;;;9.10;94.20;;;;;;4061269;29;20048;-77
2024/02/01 11:34:38;;;;;;;10.07;6.00;;;9.10;94.20;;;;;;4057065;29;20526;-80
2024/02/01 11:36:43;;;;;;;8.80;5.72;;;9.10;94.10;;;;;;4052776;29;20052;-78
2024/02/01 11:38:50;;;;;;;8.60;5.53;;;9.20;94.10;;;;;;4052264;29;20061;-77
2024/02/01 11:40:52;;;;;;;9.77;5.55;;;9.20;93.90;;;;;;4052694;29;20131;-78
2024/02/01 11:42:58;;;;;;;7.97;4.70;;;9.20;93.80;;;;;;4052374;29;20080;-76
2024/02/01 11:45:03;;;;;;;;;;;9.20;93.90;;;;;;4052429;29;20406;-78
2024/02/01 11:47:04;;;;;;;;;;;9.20;93.70;;;;;;4052331;29;20030;-79
2024/02/01 11:49:06;;;;;;;7.05;4.30;;;9.20;93.60;;;;;;4051917;29;19959;-78
2024/02/01 11:51:08;;;;;;;7.97;4.45;;;9.30;93.60;;;;;;4052141;29;20116;-78
2024/02/01 11:53:11;;;;;;;7.45;4.50;;;9.30;93.50;;;;;;4052169;29;20060;-77
2024/02/01 11:55:14;;;;;;;8.68;4.38;;;9.30;93.40;;;;;;4050002;29;20486;-79
2024/02/01 11:57:18;;;;;;;9.13;4.30;;;9.20;93.60;;;;;;4052299;29;20120;-78
2024/02/01 11:59:20;;;;;;;7.82;4.32;;;9.20;93.60;;;;;;4052048;29;20055;-78
2024/02/01 12:01:24;;;;;;;7.70;4.28;;;9.20;93.80;;;;;;4051231;29;20472;-79
2024/02/01 12:03:29;;;;;;;6.85;4.10;;;9.20;94.00;;;;;;4051808;29;20053;-77
2024/02/01 12:05:33;;;;;;;8.55;4.10;;;9.20;94.00;;;;;;4051797;29;20056;-79
2024/02/01 12:07:35;;;;;;;6.80;4.35;;;9.30;94.20;;;;;;4051520;29;20143;-78
2024/02/01 12:09:36;;;;;;;8.75;4.18;;;9.30;94.30;;;;;;4051785;29;20478;-78
2024/02/01 12:11:38;;;;;;;6.47;3.47;;;9.30;94.20;;;;;;4051781;29;20053;-77
2024/02/01 12:13:46;;;;;;;6.85;3.78;;;9.30;94.30;;;;;;4051407;29;20435;-79
2024/02/01 12:15:52;;;;;;;6.25;3.80;;;9.30;94.50;;;;;;4051440;29;20083;-79
2024/02/01 12:17:58;;;;;;;6.10;3.58;;;9.40;94.50;;;;;;4051687;29;20139;-80
2024/02/01 12:19:59;;;;;;;6.38;3.90;;;9.40;94.60;;;;;;4051708;29;20076;-80
2024/02/01 12:22:02;;;;;;;5.35;3.53;;;9.40;94.60;;;;;;4051460;29;20133;-79
2024/02/01 12:24:04;;;;;;;7.63;4.15;;;9.40;94.60;;;;;;4051551;29;20458;-78
2024/02/01 12:26:06;;;;;;;6.65;3.47;;;9.40;95.00;;;;;;4050993;29;20049;-80
2024/02/01 12:28:11;;;;;;;8.40;4.15;;;9.30;95.10;;;;;;4051481;29;20060;-78
2024/02/01 12:30:15;;;;;;;7.18;4.13;;;9.30;95.00;;;;;;4051671;29;20080;-78
2024/02/01 12:32:17;;;;;;;7.90;4.10;;;9.30;95.30;;;;;;4051274;29;20064;-79
2024/02/01 12:34:22;;;;;;;7.25;4.18;;;9.20;95.30;;;;;;4051301;29;20053;-80
2024/02/01 12:36:24;;;;;;;7.88;4.35;;;9.40;95.50;;;;;;4051238;29;20048;-80
2024/02/01 12:38:40;;;;;;;8.07;4.35;;;9.30;95.00;;;;;;4052001;29;20084;-78
2024/02/01 12:40:44;;;;;;;7.80;3.92;;;9.40;94.70;;;;;;4051792;29;20060;-80
2024/02/01 12:42:48;;;;;;;6.90;3.83;;;9.50;95.10;;;;;;4051497;29;20116;-77
2024/02/01 12:44:50;;;;;;;7.38;3.85;;;9.60;94.70;;;;;;4051080;29;20101;-80
2024/02/01 12:46:52;;;;;;;5.25;3.40;;;9.60;94.40;;;;;;4051475;29;20431;-80
2024/02/01 12:48:53;;;;;;;6.50;3.90;;;9.60;94.50;;;;;;4050909;29;20116;-80
2024/02/01 12:50:58;;;;;;;6.82;3.63;;;9.60;94.40;;;;;;4050957;29;20048;-79
2024/02/01 12:53:00;;;;;;;5.97;3.90;;;9.70;94.30;;;;;;4051343;29;20049;-77
2024/02/01 12:55:02;;;;;;;6.53;3.30;;;9.70;94.50;;;;;;4048952;29;20121;-77
2024/02/01 12:57:04;;;;;;;6.68;3.50;;;9.70;93.90;;;;;;4051005;29;20060;-79
2024/02/01 12:59:09;;;;;;;7.47;3.70;;;9.70;94.00;;;;;;4051145;29;20061;-79
2024/02/01 13:01:12;;;;;;;5.85;3.60;;;9.70;93.90;;;;;;4050620;29;20543;-79
2024/02/01 13:03:14;;;;;;;5.72;3.45;;;9.70;93.90;;;;;;4050751;29;20084;-77
2024/02/01 13:05:18;;;;;;;6.22;3.42;;;9.80;93.80;;;;;;4050996;29;20053;-79
2024/02/01 13:07:22;;;;;;;6.50;3.70;;;9.80;94.00;;;;;;4051114;29;20076;-79
2024/02/01 13:09:29;;;;;;;5.40;3.38;;;9.80;93.80;;;;;;4050951;29;20052;-80
2024/02/01 13:11:31;;;;;;;7.15;3.45;;;9.80;93.60;;;;;;4051077;29;20049;-78
2024/02/01 13:13:33;;;;;;;6.40;3.67;;;9.80;93.70;;;;;;4050588;29;20147;-78
2024/02/01 13:15:35;;;;;;;5.57;3.15;;;9.80;93.90;;;;;;4050599;29;20069;-79
2024/02/01 13:17:36;;;;;;;6.55;3.30;;;9.70;94.00;;;;;;4051041;29;20075;-79
2024/02/01 13:19:40;;;;;;;7.97;3.10;;;9.80;94.20;;;;;;4050921;29;20129;-80
2024/02/01 13:21:42;;;;;;;5.78;3.10;;;9.80;94.10;;;;;;4051019;29;20052;-81
2024/02/01 13:23:46;;;;;;;5.18;2.88;;;9.80;93.80;;;;;;4051524;29;20059;-80
2024/02/01 13:25:48;;;;;;;5.15;3.00;;;9.70;93.70;;;;;;4050445;29;20136;-80
2024/02/01 13:27:52;;;;;;;6.10;3.22;;;9.70;93.90;;;;;;4051054;29;20056;-80
2024/02/01 13:29:53;;;;;;;4.85;2.80;;;9.70;94.10;;;;;;4051012;29;20418;-79
2024/02/01 13:31:55;;;;;;;7.43;4.15;;;9.80;94.10;;;;;;4050899;29;20045;-81
2024/02/01 13:33:59;;;;;;;6.80;4.05;;;9.80;94.10;;;;;;4050955;29;20414;-77
2024/02/01 13:36:01;;;;;;;7.72;4.07;;;9.80;94.10;;;;;;4050451;29;20059;-80
2024/02/01 13:38:05;;;;;;;7.80;4.68;;;9.80;94.10;;;;;;4050482;29;20053;-80
2024/02/01 13:40:14;;;;;;;8.18;4.30;;;9.70;94.00;;;;;;4051047;29;20125;-78
2024/02/01 13:42:16;;;;;;;7.85;4.38;;;9.70;93.90;;;;;;4050945;29;20774;-76
2024/02/01 13:44:23;;;;;;;7.20;4.10;;;9.70;94.20;;;;;;4050879;29;20116;-77
2024/02/01 13:46:24;;;;;;;7.40;4.00;;;9.60;94.40;;;;;;4050703;29;20074;-79
2024/02/01 13:48:26;;;;;;;7.97;4.30;;;9.60;94.60;;;;;;4050649;29;20843;-78
2024/02/01 13:50:28;;;;;;;6.80;4.07;;;9.60;94.70;;;;;;4051106;29;20084;-79
2024/02/01 13:52:30;;;;;;;7.78;4.88;;;9.60;94.80;;;;;;4051380;29;20116;-78
2024/02/01 13:54:32;;;;;;;7.15;4.40;;;9.60;94.80;;;;;;4048833;29;20077;-78
2024/02/01 13:56:35;;;;;;;7.10;4.32;;;9.60;94.90;;;;;;4050680;29;20052;-78
2024/02/01 13:58:37;;;;;;;4.53;2.70;;;9.60;94.80;;;;;;4050998;29;20135;-77
2024/02/01 14:00:37;;;;;;;5.65;3.42;;;9.60;94.10;;;;;;4050127;29;20487;-78
2024/02/01 14:02:39;;;;;;;5.32;2.95;;;9.50;94.60;;;;;;4053461;29;20057;-78
2024/02/01 14:04:41;;;;;;;4.50;2.42;;;9.60;94.60;;;;;;4053412;29;20081;-79
2024/02/01 14:06:43;;;;;;;4.35;2.13;;;9.70;94.20;;;;;;4050184;29;20068;-78
2024/02/01 14:08:45;;;;;;;3.53;1.98;;;9.70;94.00;;;;;;4053653;29;20059;-79
2024/02/01 14:10:47;;;;;;;3.80;2.10;;;9.70;93.10;;;;;;4053417;29;20481;-79
2024/02/01 14:12:50;;;;;;;3.60;2.10;;;9.70;93.10;;;;;;4053174;29;20049;-79
2024/02/01 14:14:53;;;;;;;3.40;1.85;;;9.60;93.60;;;;;;4053166;29;20048;-78
2024/02/01 14:16:54;;;;;;;3.53;1.92;;;9.60;93.60;;;;;;4053165;29;20068;-78
2024/02/01 14:18:56;;;;;;;4.57;2.50;;;9.60;93.70;;;;;;4053516;29;20108;-79
2024/02/01 14:20:58;;;;;;;4.10;2.30;;;9.60;93.80;;;;;;4053427;29;20061;-80
2024/02/01 14:23:00;;;;;;;3.70;2.22;;;9.60;93.40;;;;;;4053203;29;20096;-78
2024/02/01 14:25:02;;;;;;;4.18;2.50;;;9.60;93.60;;;;;;4053108;29;20447;-79
2024/02/01 14:27:04;;;;;;;3.75;2.25;;;9.60;93.60;;;;;;4053144;29;20100;-76
2024/02/01 14:29:08;;;;;;;4.07;2.50;;;9.50;93.60;;;;;;4053040;29;20101;-79
2024/02/01 14:31:10;;;;;;;3.92;2.10;;;9.60;93.60;;;;;;4053046;29;20056;-78
2024/02/01 14:33:11;;;;;;;4.20;2.33;;;9.60;93.40;;;;;;4053199;29;20400;-77
2024/02/01 14:35:13;;;;;;;4.07;2.10;;;9.70;93.40;;;;;;4052894;29;20104;-78
2024/02/01 14:37:17;;;;;;;4.18;2.30;;;9.70;93.30;;;;;;4052622;29;20467;-79
2024/02/01 14:39:22;;;;;;;4.82;2.67;;;9.70;93.40;;;;;;4052883;29;20056;-78
2024/02/01 14:41:24;;;;;;;4.05;2.30;;;9.70;93.50;;;;;;4052985;29;20059;-79
2024/02/01 14:43:26;;;;;;;4.95;2.40;;;9.60;93.50;;;;;;4052916;29;20052;-79
2024/02/01 14:45:29;;;;;;;4.32;2.60;;;9.60;93.70;;;;;;4052986;29;20064;-77
2024/02/01 14:47:30;;;;;;;4.07;2.53;;;9.60;93.80;;;;;;4053045;29;20052;-79
2024/02/01 14:49:32;;;;;;;4.35;2.40;;;9.60;93.90;;;;;;4052715;29;20448;-79
2024/02/01 14:51:33;;;;;;;4.03;2.40;;;9.60;93.80;;;;;;4053124;29;20464;-78
2024/02/01 14:53:35;;;;;;;5.05;2.78;;;9.60;94.10;;;;;;4052777;29;20049;-80
2024/02/01 14:55:36;;;;;;;4.22;2.58;;;9.50;94.20;;;;;;4050762;29;20108;-79
2024/02/01 14:57:38;;;;;;;5.20;3.42;;;9.50;94.20;;;;;;4052785;29;20853;-77
2024/02/01 14:59:40;;;;;;;4.50;2.70;;;9.50;94.70;;;;;;4052777;29;20049;-76
2024/02/01 15:01:42;;;;;;;3.90;2.15;;;9.40;94.60;;;;;;4052281;29;20147;-78
2024/02/01 15:03:44;;;;;;;3.80;2.30;;;9.40;94.70;;;;;;4052575;29;20057;-78
2024/02/01 15:05:46;;;;;;;4.65;2.80;;;9.20;94.90;;;;;;4052446;29;20076;-77
2024/02/01 15:07:48;;;;;;;5.65;2.83;;;9.20;95.10;;;;;;4052397;29;20060;-78
2024/02/01 15:09:49;;;;;;;3.83;2.33;;;9.20;95.10;;;;;;4052528;29;20048;-77
2024/02/01 15:11:52;;;;;;;4.15;2.40;;;9.20;95.20;;;;;;4052587;29;20086;-78
2024/02/01 15:13:54;;;;;;;4.43;2.35;;;9.30;95.10;;;;;;4051693;29;20052;-78
2024/02/01 15:15:56;;;;;;;4.10;2.30;;;9.10;95.10;;;;;;4051492;29;20045;-76
2024/02/01 15:18:00;;;;;;;4.07;2.30;;;9.20;95.20;;;;;;4051861;29;20111;-80
2024/02/01 15:20:05;;;;;;;4.25;2.60;;;9.20;95.30;;;;;;4052582;29;20064;-78
2024/02/01 15:22:07;;;;;;;4.70;2.28;;;9.20;95.20;;;;;;4052374;29;20083;-77
2024/02/01 15:24:13;;;;;;;4.55;2.67;;;9.20;95.30;;;;;;4052271;29;20053;-81
2024/02/01 15:26:16;;;;;;;5.25;2.38;;;9.20;95.40;;;;;;4052270;29;20056;-79
2024/02/01 15:28:18;;;;;;;5.25;2.70;;;9.20;95.40;;;;;;4052331;29;20143;-78
2024/02/01 15:30:20;;;;;;;5.63;2.97;;;9.20;95.40;;;;;;4052333;29;20140;-79
2024/02/01 15:32:22;;;;;;;3.92;2.53;;;9.20;95.40;;;;;;4052076;29;20102;-78
2024/02/01 15:34:25;;;;;;;5.13;3.05;;;9.20;95.50;;;;;;4052227;29;20052;-78
2024/02/01 15:36:30;;;;;;;4.43;2.80;;;9.10;95.70;;;;;;4051639;29;20056;-77
2024/02/01 15:38:30;;;;;;;5.47;3.10;;;9.10;95.80;;;;;;4052471;29;20135;-79
2024/02/01 15:40:32;;;;;;;5.38;3.05;;;9.00;95.70;;;;;;4051956;29;20068;-78
2024/02/01 15:42:34;;;;;;;7.18;2.97;;;9.00;95.80;;;;;;4052230;29;20412;-80
2024/02/01 15:44:38;;;;;;;7.05;3.35;;;9.00;96.10;;;;;;4052164;29;20108;-79
2024/02/01 15:46:40;;;;;;;5.70;3.22;;;9.00;96.10;;;;;;4051922;29;20108;-79
2024/02/01 15:48:42;;;;;;;5.47;3.55;;;9.00;96.10;;;;;;4052132;29;20749;-79
2024/02/01 15:50:48;;;;;;;6.15;3.33;;;9.00;96.00;;;;;;4052009;29;20076;-77
2024/02/01 15:52:50;;;;;;;4.45;2.90;;;8.90;96.20;;;;;;4051967;29;20052;-79
2024/02/01 15:54:52;;;;;;;5.55;3.45;;;8.90;96.20;;;;;;4042866;29;20131;-78
2024/02/01 15:56:54;;;;;;;5.68;3.20;;;8.90;96.30;;;;;;4051868;29;20088;-79
2024/02/01 15:58:56;;;;;;;5.43;3.42;;;9.00;96.20;;;;;;4052086;29;20056;-78
2024/02/01 16:00:58;;;;;;;5.75;3.40;;;9.00;96.20;;;;;;4051068;29;20056;-79
2024/02/01 16:03:00;;;;;;;6.00;3.58;;;9.00;96.20;;;;;;4051690;29;20052;-80
2024/02/01 16:05:01;;;;;;;6.93;3.75;;;9.00;96.10;;;;;;4052317;29;20074;-79
2024/02/01 16:07:05;;;;;;;6.22;4.10;;;9.00;96.10;;;;;;4051863;29;20092;-80
2024/02/01 16:09:11;;;;;;;8.32;4.35;;;9.00;96.20;;;;;;4052193;29;20452;-80
2024/02/01 16:11:19;;;;;;;8.20;4.32;;;9.00;96.00;;;;;;4052484;29;20052;-79
2024/02/01 16:13:20;;;;;;;5.57;3.80;;;9.10;95.90;;;;;;4051820;29;20447;-78
2024/02/01 16:15:26;;;;;;;6.80;3.97;;;9.10;95.80;;;;;;4052056;29;20517;-78
2024/02/01 16:17:28;;;;;;;6.22;3.92;;;9.10;95.70;;;;;;4052298;29;20475;-78
2024/02/01 16:19:36;;;;;;;7.38;3.78;;;9.20;95.50;;;;;;4052253;29;20056;-77
2024/02/01 16:21:38;;;;;;;7.38;4.07;;;9.20;95.40;;;;;;4052478;29;20568;-77
2024/02/01 16:23:43;;;;;;;6.70;4.40;;;9.10;95.30;;;;;;4052300;29;20056;-78
2024/02/01 16:25:45;;;;;;;5.93;4.03;;;9.20;95.40;;;;;;4052560;29;20045;-80
2024/02/01 16:28:05;;;;;;;6.68;3.70;;;9.20;95.30;;;;;;4052383;29;20084;-78
2024/02/01 16:30:55;;;;;;;7.72;3.88;;;9.20;95.30;;;;;;4051508;29;20045;-77
2024/02/01 16:32:57;;;;;;;7.20;4.10;;;9.20;95.30;;;;;;4052622;29;20048;-80
2024/02/01 16:35:00;;;;;;;6.70;3.97;;;9.20;95.30;;;;;;4052031;29;20396;-78
2024/02/01 16:37:04;;;;;;;5.88;3.90;;;9.20;95.20;;;;;;4052326;29;20574;-78
2024/02/01 16:39:17;;;;;;;9.65;5.78;;;9.10;95.20;;;;;;4052453;29;20044;-80
2024/02/01 16:41:30;;;;;;;11.32;7.25;;;9.20;95.30;;;;;;4052809;29;20056;-78
2024/02/01 16:43:36;;;;;;;13.45;7.40;;;9.10;95.30;;;;;;4052295;29;20578;-76
2024/02/01 16:45:38;;;;;;;;;;;9.10;95.30;;;;;;4051898;29;20571;-78
2024/02/01 16:47:43;;;;;;;25.30;13.35;;;9.10;95.20;;;;;;4051981;29;19923;-78
2024/02/01 16:49:45;;;;;;;15.18;9.20;;;9.10;95.30;;;;;;4051589;29;20059;-79
2024/02/01 16:51:47;;;;;;;13.52;7.40;;;9.20;95.20;;;;;;4052011;29;20056;-77
2024/02/01 16:53:51;;;;;;;21.30;12.77;;;9.20;95.20;;;;;;4052251;29;20493;-79
2024/02/01 16:55:55;;;;;;;8.65;5.43;;;9.20;95.20;;;;;;4050292;29;20052;-77
2024/02/01 16:57:57;;;;;;;6.85;3.80;;;9.20;95.10;;;;;;4052241;29;20459;-79
2024/02/01 16:59:59;;;;;;;6.68;4.28;;;9.10;95.10;;;;;;4052517;29;20392;-79
2024/02/01 17:02:01;;;;;;;6.00;3.85;;;9.20;95.10;;;;;;4051571;29;20503;-77
2024/02/01 17:04:04;;;;;;;5.55;3.50;;;9.10;94.90;;;;;;4052520;29;20521;-78
2024/02/01 17:06:12;;;;;;;6.20;3.70;;;9.20;94.90;;;;;;4051398;29;20060;-79
2024/02/01 17:08:36;;;;;;;6.50;4.03;;;9.10;94.90;;;;;;4051216;29;20639;-78
2024/02/01 17:10:50;;;;;;;5.38;3.45;;;9.10;95.00;;;;;;4040981;29;20108;-80
2024/02/01 17:12:55;;;;;;;6.75;3.80;;;9.10;95.00;;;;;;4050590;29;20056;-77
2024/02/01 17:14:57;;;;;;;6.38;3.80;;;9.10;95.00;;;;;;4046238;29;20096;-77
2024/02/01 17:17:03;;;;;;;7.50;4.30;;;9.10;95.10;;;;;;4051683;29;20056;-77
2024/02/01 17:19:05;;;;;;;;;;;9.10;95.00;;;;;;4051576;29;20056;-78
2024/02/01 17:21:07;;;;;;;6.25;3.88;;;9.00;95.00;;;;;;4051429;29;19952;-79
2024/02/01 17:23:09;;;;;;;6.78;3.92;;;9.00;95.00;;;;;;4051420;29;20057;-76
2024/02/01 17:25:58;;;;;;;7.00;4.38;;;9.00;95.10;;;;;;4044673;29;20060;-77
2024/02/01 17:28:03;;;;;;;6.03;4.00;;;8.90;95.10;;;;;;4045786;29;20443;-78
2024/02/01 17:30:47;;;;;;;6.60;4.35;;;8.90;95.20;;;;;;4052431;29;20044;-78
2024/02/01 17:32:49;;;;;;;8.95;4.50;;;8.90;95.10;;;;;;4035695;29;20085;-80